Time;durP1;ratioP1;P1;durP2;ratioP2;P2;SDS_P1;SDS_P2;PMS_P1;PMS_P2;Temp;Humidity;BMP_temperature;BMP_pressure;BME280_temperature;BME280_humidity;BME280_pressure;Samples;Min_cycle;Max_cycle;Signal;HPM_P1;HPM_P2
2023/06/29 00:01:02;;;;;;;51.10;34.03;;;18.90;99.90;;;;;;5052664;28;20094;-77
2023/06/29 00:03:29;;;;;;;49.00;32.58;;;18.80;99.90;;;;;;5047579;28;20164;-75
2023/06/29 00:05:55;;;;;;;57.97;35.55;;;18.80;99.90;;;;;;5053285;28;20457;-76
2023/06/29 00:08:25;;;;;;;49.50;34.38;;;18.70;99.90;;;;;;5065335;28;20044;-78
2023/06/29 00:10:54;;;;;;;48.15;34.13;;;18.80;99.90;;;;;;5057015;28;20478;-76
2023/06/29 00:13:20;;;;;;;55.22;33.70;;;;;;;;;;5054192;28;20106;-77
2023/06/29 00:15:48;;;;;;;57.58;34.67;;;18.90;99.90;;;;;;5056839;28;20052;-76
2023/06/29 00:18:14;;;;;;;59.10;37.00;;;19.10;99.90;;;;;;5051082;28;20051;-75
2023/06/29 00:20:40;;;;;;;52.33;34.42;;;18.90;99.90;;;;;;5047356;28;20505;-75
2023/06/29 00:23:06;;;;;;;54.38;33.95;;;;;;;;;;5049797;28;20059;-76
2023/06/29 00:25:33;;;;;;;49.30;33.95;;;;;;;;;;5044958;28;20055;-80
2023/06/29 00:27:58;;;;;;;50.35;33.85;;;19.00;99.90;;;;;;5051807;28;20044;-76
2023/06/29 00:30:24;;;;;;;58.30;35.38;;;;;;;;;;5044365;28;20039;-77
2023/06/29 00:32:50;;;;;;;53.72;34.65;;;19.00;99.90;;;;;;5051634;28;20044;-76
2023/06/29 00:35:15;;;;;;;57.65;35.00;;;19.00;99.90;;;;;;5051815;28;20048;-77
2023/06/29 00:37:44;;;;;;;57.08;34.85;;;;;;;;;;5044148;28;20059;-77
2023/06/29 00:40:10;;;;;;;54.08;34.50;;;18.80;99.90;;;;;;5049333;28;20041;-76
2023/06/29 00:42:37;;;;;;;53.95;34.25;;;;;;;;;;5052624;28;20079;-77
2023/06/29 00:45:04;;;;;;;57.97;35.42;;;;;;;;;;5057274;28;20056;-76
2023/06/29 00:47:31;;;;;;;54.75;35.33;;;18.70;99.90;;;;;;5050582;28;20040;-80
2023/06/29 00:49:57;;;;;;;51.30;32.78;;;;;;;;;;5050024;28;20468;-77
2023/06/29 00:52:23;;;;;;;52.10;34.53;;;;;;;;;;5057276;28;20489;-75
2023/06/29 00:54:49;;;;;;;47.95;33.05;;;18.60;99.90;;;;;;5067879;28;20044;-75
2023/06/29 00:57:15;;;;;;;55.92;34.63;;;18.50;99.90;;;;;;5068269;28;20040;-75
2023/06/29 00:59:41;;;;;;;56.17;35.30;;;;;;;;;;5047081;28;20044;-76
2023/06/29 01:02:10;;;;;;;48.35;31.73;;;18.70;99.90;;;;;;5049805;28;20419;-78
2023/06/29 01:04:37;;;;;;;50.53;32.45;;;18.60;99.90;;;;;;5041154;28;20135;-77
2023/06/29 01:07:03;;;;;;;50.15;33.15;;;;;;;;;;5052767;28;20048;-76
2023/06/29 01:09:30;;;;;;;51.10;32.90;;;18.70;99.90;;;;;;5056593;28;20041;-76
2023/06/29 01:11:57;;;;;;;48.78;33.53;;;18.80;99.90;;;;;;5058870;28;20060;-75
2023/06/29 01:14:25;;;;;;;48.58;32.22;;;18.70;99.90;;;;;;5057144;28;20048;-75
2023/06/29 01:16:52;;;;;;;52.08;32.78;;;18.70;99.90;;;;;;5059662;28;20044;-76
2023/06/29 01:19:24;;;;;;;48.92;32.60;;;18.70;99.90;;;;;;5061186;28;20044;-76
2023/06/29 01:22:24;;;;;;;48.80;32.85;;;18.80;99.90;;;;;;5054226;28;20465;-76
2023/06/29 01:24:50;;;;;;;48.40;32.20;;;;;;;;;;5049753;28;20056;-77
2023/06/29 01:27:16;;;;;;;53.83;33.67;;;18.70;99.90;;;;;;5052438;28;20379;-78
2023/06/29 01:29:42;;;;;;;51.83;33.92;;;18.60;99.90;;;;;;5052450;28;20043;-76
2023/06/29 01:32:10;;;;;;;51.47;33.25;;;18.70;99.90;;;;;;5057906;28;20048;-76
2023/06/29 01:34:37;;;;;;;52.95;33.58;;;18.80;99.90;;;;;;5056037;28;20139;-77
2023/06/29 01:37:18;;;;;;;53.10;34.22;;;18.30;99.90;;;;;;5065597;28;20574;-77
2023/06/29 01:40:00;;;;;;;52.65;33.60;;;18.90;99.90;;;;;;5043716;28;20442;-78
2023/06/29 01:42:31;;;;;;;46.95;33.03;;;18.40;99.90;;;;;;5052537;28;20036;-75
2023/06/29 01:45:01;;;;;;;49.88;32.58;;;18.50;99.90;;;;;;5056476;28;20044;-76
2023/06/29 01:47:28;;;;;;;52.47;32.97;;;18.60;99.90;;;;;;5073682;28;20105;-77
2023/06/29 01:49:54;;;;;;;49.65;32.10;;;;;;;;;;5057041;28;20060;-76
2023/06/29 01:52:19;;;;;;;45.35;32.40;;;18.50;99.90;;;;;;5053984;28;20075;-76
2023/06/29 01:54:45;;;;;;;51.08;34.03;;;;;;;;;;5067741;28;20430;-76
2023/06/29 01:57:12;;;;;;;49.72;33.38;;;18.50;99.90;;;;;;5048035;28;20041;-76
2023/06/29 01:59:38;;;;;;;51.60;32.15;;;18.50;99.90;;;;;;5054701;28;20416;-78
2023/06/29 02:02:04;;;;;;;53.70;32.38;;;;;;;;;;5056069;28;20040;-77
2023/06/29 02:04:30;;;;;;;49.97;31.75;;;18.40;99.90;;;;;;5057859;28;20045;-78
2023/06/29 02:06:56;;;;;;;49.80;31.77;;;18.50;99.90;;;;;;5052347;28;20449;-76
2023/06/29 02:09:21;;;;;;;54.33;32.28;;;18.40;99.90;;;;;;5051602;28;20051;-75
2023/06/29 02:11:47;;;;;;;49.17;33.85;;;;;;;;;;5058314;28;20052;-76
2023/06/29 02:14:16;;;;;;;53.05;31.55;;;;;;;;;;5050161;28;20049;-78
2023/06/29 02:16:51;;;;;;;51.28;31.73;;;18.50;99.90;;;;;;5059096;28;20044;-76
2023/06/29 02:19:18;;;;;;;50.13;31.98;;;;;;;;;;5048483;28;20072;-79
2023/06/29 02:21:44;;;;;;;49.90;31.95;;;;;;;;;;5057157;28;20056;-79
2023/06/29 02:24:09;;;;;;;40.97;31.10;;;;;;;;;;5054539;28;20383;-75
2023/06/29 02:26:35;;;;;;;44.70;31.58;;;18.70;99.90;;;;;;5055677;28;20083;-75
2023/06/29 02:29:01;;;;;;;51.50;32.70;;;;;;;;;;5066208;28;20044;-76
2023/06/29 02:31:26;;;;;;;49.28;31.63;;;18.50;99.90;;;;;;5052624;28;20405;-75
2023/06/29 02:33:52;;;;;;;48.65;31.98;;;;;;;;;;5054294;28;20044;-77
2023/06/29 02:36:21;;;;;;;46.38;29.98;;;;;;;;;;5057042;28;20064;-76
2023/06/29 02:38:47;;;;;;;50.05;31.25;;;18.50;99.90;;;;;;5056211;28;20189;-75
2023/06/29 02:41:12;;;;;;;45.60;30.65;;;18.50;99.90;;;;;;5049356;28;20055;-76
2023/06/29 02:43:38;;;;;;;47.28;31.55;;;;;;;;;;5066618;28;20040;-76
2023/06/29 02:46:04;;;;;;;47.47;31.23;;;;;;;;;;5049299;28;20052;-78
2023/06/29 02:48:30;;;;;;;48.67;29.95;;;;;;;;;;5048345;28;20048;-77
2023/06/29 02:50:57;;;;;;;49.67;31.00;;;;;;;;;;5062685;28;20119;-76
2023/06/29 02:53:22;;;;;;;41.70;29.48;;;18.70;99.90;;;;;;5066158;28;20044;-75
2023/06/29 02:55:48;;;;;;;45.67;29.65;;;18.50;99.90;;;;;;5063598;28;20402;-77
2023/06/29 02:58:14;;;;;;;47.25;29.20;;;;;;;;;;5047904;28;20394;-76
2023/06/29 03:00:40;;;;;;;41.53;28.83;;;;;;;;;;5050034;28;20078;-80
2023/06/29 03:03:06;;;;;;;44.38;28.83;;;;;;;;;;5057465;28;20048;-77
2023/06/29 03:05:32;;;;;;;47.85;28.60;;;;;;;;;;5051424;28;20051;-76
2023/06/29 03:07:57;;;;;;;44.75;27.42;;;18.40;99.90;;;;;;5048008;28;20406;-76
2023/06/29 03:10:23;;;;;;;40.38;26.50;;;;;;;;;;5057569;28;20098;-77
2023/06/29 03:12:49;;;;;;;40.30;25.75;;;;;;;;;;5065983;28;20063;-78
2023/06/29 03:15:15;;;;;;;41.42;26.55;;;;;;;;;;5047259;28;20060;-79
2023/06/29 03:17:41;;;;;;;42.28;26.60;;;;;;;;;;5049110;28;20051;-77
2023/06/29 03:20:07;;;;;;;39.90;24.77;;;;;;;;;;5057201;28;20528;-76
2023/06/29 03:22:33;;;;;;;42.67;25.48;;;18.40;99.90;;;;;;5053416;28;20139;-76
2023/06/29 03:24:59;;;;;;;39.15;25.70;;;18.50;99.90;;;;;;5052157;28;20132;-75
2023/06/29 03:27:24;;;;;;;38.72;23.67;;;18.50;99.90;;;;;;5049660;28;20036;-76
2023/06/29 03:29:52;;;;;;;38.55;22.52;;;18.50;99.90;;;;;;5057250;28;20093;-80
2023/06/29 03:32:18;;;;;;;32.90;23.60;;;18.40;99.90;;;;;;5031997;28;20032;-75
2023/06/29 03:34:44;;;;;;;35.53;24.33;;;;;;;;;;5048244;28;20040;-75
2023/06/29 03:37:10;;;;;;;34.67;23.10;;;18.40;99.90;;;;;;5051890;28;20056;-76
2023/06/29 03:39:36;;;;;;;37.92;24.02;;;;;;;;;;5065164;28;20093;-82
2023/06/29 03:42:02;;;;;;;34.65;23.00;;;;;;;;;;5059019;28;20044;-78
2023/06/29 03:44:28;;;;;;;36.38;23.20;;;;;;;;;;5057442;28;20040;-76
2023/06/29 03:46:53;;;;;;;38.33;24.20;;;18.60;99.90;;;;;;5049035;28;20107;-75
2023/06/29 03:49:19;;;;;;;34.42;22.45;;;18.50;99.90;;;;;;5045482;28;20336;-76
2023/06/29 03:51:44;;;;;;;34.42;21.95;;;18.70;99.90;;;;;;5050297;28;20050;-76
2023/06/29 03:54:10;;;;;;;34.35;21.05;;;;;;;;;;5048570;28;20045;-79
2023/06/29 03:56:36;;;;;;;34.13;22.67;;;;;;;;;;5044074;28;20554;-79
2023/06/29 03:59:02;;;;;;;32.20;21.90;;;;;;;;;;5045473;28;20043;-77
2023/06/29 04:01:28;;;;;;;34.10;22.50;;;18.50;99.90;;;;;;5052982;28;20066;-76
2023/06/29 04:03:53;;;;;;;33.53;21.40;;;18.60;99.90;;;;;;5047789;28;20056;-75
2023/06/29 04:06:19;;;;;;;35.55;21.88;;;;;;;;;;5054829;28;20048;-75
2023/06/29 04:08:45;;;;;;;28.83;20.70;;;;;;;;;;5050454;28;20083;-78
2023/06/29 04:11:12;;;;;;;30.80;22.05;;;;;;;;;;5051089;28;20048;-76
2023/06/29 04:13:38;;;;;;;31.80;22.27;;;;;;;;;;5051378;28;20056;-77
2023/06/29 04:16:04;;;;;;;32.88;20.15;;;18.50;99.90;;;;;;5061612;28;20052;-75
2023/06/29 04:18:30;;;;;;;38.35;21.23;;;;;;;;;;5049076;28;20101;-76
2023/06/29 04:20:56;;;;;;;32.88;21.83;;;;;;;;;;5053545;28;20052;-75
2023/06/29 04:23:22;;;;;;;31.52;20.33;;;;;;;;;;5061048;28;20056;-81
2023/06/29 04:25:48;;;;;;;33.13;20.42;;;;;;;;;;5051237;28;20091;-77
2023/06/29 04:28:14;;;;;;;31.80;20.95;;;18.60;99.90;;;;;;5051692;28;20048;-75
2023/06/29 04:30:43;;;;;;;33.40;20.42;;;18.60;99.90;;;;;;5049767;28;20436;-76
2023/06/29 04:33:10;;;;;;;32.30;20.17;;;;;;;;;;5052115;28;20494;-76
2023/06/29 04:35:38;;;;;;;34.08;19.88;;;18.50;99.90;;;;;;5059016;28;20048;-76
2023/06/29 04:38:04;;;;;;;31.88;20.77;;;18.50;99.90;;;;;;5052064;28;20076;-76
2023/06/29 04:40:30;;;;;;;31.75;21.23;;;18.60;99.90;;;;;;5057662;28;20059;-75
2023/06/29 04:42:55;;;;;;;27.95;19.67;;;18.60;99.90;;;;;;5048786;28;20565;-75
2023/06/29 04:45:21;;;;;;;28.55;18.95;;;18.70;99.90;;;;;;5068596;28;20157;-79
2023/06/29 04:47:49;;;;;;;31.38;19.55;;;18.70;99.90;;;;;;5050061;28;20040;-76
2023/06/29 04:50:15;;;;;;;29.40;18.52;;;18.90;99.90;;;;;;5052385;28;20049;-76
2023/06/29 04:52:41;;;;;;;31.30;20.63;;;18.70;99.90;;;;;;5059909;28;20043;-78
2023/06/29 04:55:08;;;;;;;26.77;18.95;;;18.70;99.90;;;;;;5051145;28;20044;-78
2023/06/29 04:57:34;;;;;;;28.58;18.65;;;;;;;;;;5062979;28;20055;-77
2023/06/29 04:59:59;;;;;;;29.92;18.83;;;;;;;;;;5054938;28;20041;-76
2023/06/29 05:02:25;;;;;;;29.40;19.42;;;18.90;99.90;;;;;;5051504;28;20064;-76
2023/06/29 05:04:51;;;;;;;28.23;18.25;;;19.10;99.90;;;;;;5056061;28;20036;-76
2023/06/29 05:07:16;;;;;;;28.90;18.70;;;18.90;99.90;;;;;;5053340;28;20071;-77
2023/06/29 05:09:42;;;;;;;31.35;19.77;;;18.90;99.90;;;;;;5048247;28;20044;-76
2023/06/29 05:12:09;;;;;;;32.47;18.90;;;18.80;99.90;;;;;;5052993;28;20498;-77
2023/06/29 05:14:34;;;;;;;30.65;19.17;;;18.90;99.90;;;;;;5049662;28;20132;-76
2023/06/29 05:17:00;;;;;;;31.40;19.70;;;18.80;99.90;;;;;;5052536;28;20444;-78
2023/06/29 05:19:26;;;;;;;29.23;19.25;;;;;;;;;;5045025;28;20055;-79
2023/06/29 05:21:52;;;;;;;29.00;19.65;;;;;;;;;;5015296;28;20052;-78
2023/06/29 05:24:19;;;;;;;29.15;19.00;;;;;;;;;;5067069;28;20047;-78
2023/06/29 05:26:44;;;;;;;27.02;19.48;;;19.10;99.90;;;;;;5052702;28;20049;-75
2023/06/29 05:29:10;;;;;;;31.65;19.42;;;18.80;99.90;;;;;;5052615;28;20077;-75
2023/06/29 05:31:35;;;;;;;26.75;18.90;;;18.90;99.90;;;;;;5066194;28;20044;-77
2023/06/29 05:34:01;;;;;;;29.75;18.48;;;19.00;99.90;;;;;;5053553;28;20037;-75
2023/06/29 05:36:26;;;;;;;29.05;19.92;;;19.00;99.90;;;;;;5055569;28;20052;-75
2023/06/29 05:38:52;;;;;;;29.52;19.92;;;;;;;;;;5063258;28;20125;-77
2023/06/29 05:41:18;;;;;;;25.27;19.02;;;;;;;;;;5044089;28;20098;-78
2023/06/29 05:43:44;;;;;;;31.42;20.52;;;19.00;99.90;;;;;;5055374;28;20084;-77
2023/06/29 05:46:10;;;;;;;31.38;20.48;;;19.10;99.90;;;;;;5057622;28;20129;-75
2023/06/29 05:48:35;;;;;;;28.50;18.48;;;19.00;99.90;;;;;;5049794;28;20128;-76
2023/06/29 05:51:01;;;;;;;29.65;19.77;;;19.10;99.90;;;;;;5059410;28;20121;-75
2023/06/29 05:53:27;;;;;;;30.40;19.88;;;19.10;99.90;;;;;;5055516;28;20037;-76
2023/06/29 05:55:52;;;;;;;30.65;20.38;;;19.00;99.90;;;;;;5057705;28;20135;-78
2023/06/29 05:58:18;;;;;;;32.22;21.23;;;19.00;99.90;;;;;;5064537;28;20039;-77
2023/06/29 06:00:44;;;;;;;33.67;22.40;;;;;;;;;;5050188;28;20044;-78
2023/06/29 06:03:10;;;;;;;31.70;19.92;;;19.10;99.90;;;;;;5067142;28;20503;-76
2023/06/29 06:05:36;;;;;;;32.58;21.98;;;19.10;99.90;;;;;;5053054;28;20051;-78
2023/06/29 06:08:01;;;;;;;32.13;20.80;;;19.10;99.90;;;;;;5049703;28;20036;-75
2023/06/29 06:10:27;;;;;;;38.13;21.67;;;19.20;99.90;;;;;;5054341;28;20127;-76
2023/06/29 06:12:53;;;;;;;31.70;20.27;;;;;;;;;;5055405;28;20410;-78
2023/06/29 06:15:19;;;;;;;34.88;22.88;;;;;;;;;;5059344;28;20402;-78
2023/06/29 06:17:45;;;;;;;32.22;22.55;;;;;;;;;;5054308;28;20327;-77
2023/06/29 06:20:11;;;;;;;33.88;22.23;;;19.30;99.90;;;;;;5016748;28;20117;-76
2023/06/29 06:22:36;;;;;;;32.92;21.48;;;19.30;99.90;;;;;;5054309;28;20438;-75
2023/06/29 06:25:02;;;;;;;37.92;22.92;;;19.30;99.90;;;;;;5048674;28;20047;-75
2023/06/29 06:27:28;;;;;;;38.22;22.13;;;;;;;;;;5049976;28;20155;-77
2023/06/29 06:29:54;;;;;;;33.50;21.33;;;19.30;99.90;;;;;;5052490;28;20588;-75
2023/06/29 06:32:20;;;;;;;32.50;22.60;;;19.40;99.90;;;;;;5054404;28;20050;-76
2023/06/29 06:34:46;;;;;;;37.95;23.88;;;;;;;;;;5055606;28;20045;-76
2023/06/29 06:37:12;;;;;;;36.40;22.95;;;;;;;;;;5057442;28;20181;-79
2023/06/29 06:39:38;;;;;;;40.33;23.00;;;;;;;;;;5047731;28;20133;-77
2023/06/29 06:42:04;;;;;;;33.75;22.95;;;19.40;99.90;;;;;;5056754;28;20561;-77
2023/06/29 06:44:30;;;;;;;32.40;22.80;;;19.40;99.90;;;;;;5050617;28;20082;-75
2023/06/29 06:46:55;;;;;;;34.35;22.63;;;19.30;99.90;;;;;;5052215;28;20044;-80
2023/06/29 06:49:21;;;;;;;38.22;22.65;;;19.40;99.90;;;;;;5065657;28;20086;-76
2023/06/29 06:51:46;;;;;;;39.17;24.40;;;19.30;99.90;;;;;;5045496;28;20483;-77
2023/06/29 06:54:12;;;;;;;33.97;23.30;;;;;;;;;;5050253;28;20045;-78
2023/06/29 06:56:38;;;;;;;37.55;23.75;;;19.20;99.90;;;;;;5059777;28;20902;-78
2023/06/29 06:59:04;;;;;;;44.58;25.10;;;19.40;99.90;;;;;;5048279;28;20130;-78
2023/06/29 07:01:30;;;;;;;35.08;22.95;;;19.50;99.90;;;;;;5045951;28;20492;-76
2023/06/29 07:03:56;;;;;;;40.28;22.65;;;;;;;;;;5043844;28;20052;-76
2023/06/29 07:06:21;;;;;;;36.80;23.25;;;19.40;99.90;;;;;;5029292;28;20048;-75
2023/06/29 07:08:48;;;;;;;43.55;24.98;;;19.30;99.90;;;;;;5048075;28;20045;-76
2023/06/29 07:11:13;;;;;;;32.88;23.83;;;19.30;99.90;;;;;;5048191;28;20053;-76
2023/06/29 07:13:39;;;;;;;36.25;23.17;;;19.30;99.90;;;;;;5058703;28;20090;-78
2023/06/29 07:16:06;;;;;;;32.65;23.30;;;19.30;99.90;;;;;;5045872;28;20040;-75
2023/06/29 07:18:35;;;;;;;36.67;23.58;;;19.40;99.90;;;;;;5050571;28;20048;-72
2023/06/29 07:21:01;;;;;;;40.60;23.55;;;;;;;;;;5044174;28;20052;-71
2023/06/29 07:23:27;;;;;;;38.42;24.50;;;19.40;99.90;;;;;;5040874;28;20505;-74
2023/06/29 07:25:52;;;;;;;38.80;24.08;;;19.40;99.90;;;;;;5045227;28;20125;-75
2023/06/29 07:28:18;;;;;;;34.97;22.35;;;19.50;99.90;;;;;;5044708;28;20040;-75
2023/06/29 07:30:44;;;;;;;40.13;23.63;;;19.50;99.90;;;;;;5047884;28;20182;-74
2023/06/29 07:33:09;;;;;;;36.08;22.58;;;19.60;99.90;;;;;;5052278;28;20048;-76
2023/06/29 07:35:35;;;;;;;34.72;23.77;;;19.80;99.90;;;;;;5064482;28;20072;-75
2023/06/29 07:38:00;;;;;;;38.28;24.55;;;19.90;99.90;;;;;;5029971;28;20048;-76
2023/06/29 07:40:27;;;;;;;34.75;22.67;;;;;;;;;;5050705;28;20048;-75
2023/06/29 07:42:52;;;;;;;35.58;22.75;;;20.10;99.90;;;;;;5056379;28;20055;-75
2023/06/29 07:45:18;;;;;;;38.10;23.85;;;;;;;;;;5064308;28;20044;-76
2023/06/29 07:47:44;;;;;;;42.40;25.10;;;20.10;99.90;;;;;;5030853;28;20383;-75
2023/06/29 07:50:10;;;;;;;33.42;23.30;;;20.20;99.90;;;;;;5052255;28;20052;-75
2023/06/29 07:52:36;;;;;;;39.05;24.40;;;20.20;99.90;;;;;;5056634;28;20119;-73
2023/06/29 07:55:02;;;;;;;38.60;24.27;;;20.30;99.90;;;;;;5055246;28;20051;-76
2023/06/29 07:57:27;;;;;;;37.53;23.60;;;20.30;99.90;;;;;;5058490;28;20109;-79
2023/06/29 07:59:53;;;;;;;38.00;24.33;;;20.30;99.90;;;;;;5065828;28;20097;-74
2023/06/29 08:02:19;;;;;;;34.58;24.33;;;20.30;99.90;;;;;;5047148;28;20037;-76
2023/06/29 08:04:45;;;;;;;38.63;24.77;;;20.40;99.90;;;;;;5051459;28;20094;-76
2023/06/29 08:07:12;;;;;;;36.05;24.83;;;20.40;99.90;;;;;;5068618;28;20041;-75
2023/06/29 08:09:38;;;;;;;37.70;24.63;;;20.40;99.90;;;;;;5062117;28;20607;-74
2023/06/29 08:12:04;;;;;;;39.58;25.48;;;20.40;99.90;;;;;;5052932;28;20056;-75
2023/06/29 08:14:32;;;;;;;41.88;26.95;;;20.50;99.90;;;;;;5068949;28;20163;-77
2023/06/29 08:16:57;;;;;;;39.97;24.67;;;20.60;99.90;;;;;;5057137;28;20417;-72
2023/06/29 08:19:23;;;;;;;41.67;25.33;;;20.60;99.90;;;;;;5047144;28;20074;-71
2023/06/29 08:21:48;;;;;;;39.38;25.90;;;20.70;99.90;;;;;;5056864;28;20715;-71
2023/06/29 08:24:14;;;;;;;39.28;25.95;;;20.80;99.90;;;;;;5050744;28;20442;-72
2023/06/29 08:26:40;;;;;;;43.33;26.30;;;20.70;99.90;;;;;;5053256;28;20441;-72
2023/06/29 08:29:05;;;;;;;40.38;25.75;;;20.70;99.90;;;;;;5067851;28;20041;-78
2023/06/29 08:31:31;;;;;;;38.28;24.63;;;20.60;99.90;;;;;;5051015;28;20281;-74
2023/06/29 08:33:56;;;;;;;38.67;23.98;;;20.40;99.90;;;;;;5047074;28;20059;-72
2023/06/29 08:36:22;;;;;;;37.05;24.85;;;20.40;99.90;;;;;;5038012;28;20151;-72
2023/06/29 08:38:48;;;;;;;38.95;25.00;;;20.60;99.90;;;;;;5068000;28;20037;-73
2023/06/29 08:41:15;;;;;;;39.58;25.42;;;20.30;99.90;;;;;;5067996;28;20051;-73
2023/06/29 08:43:42;;;;;;;38.67;24.75;;;20.40;99.90;;;;;;5053809;28;20394;-71
2023/06/29 08:46:08;;;;;;;38.63;25.98;;;20.30;99.90;;;;;;5050040;28;20132;-73
2023/06/29 08:48:34;;;;;;;40.90;24.75;;;20.20;99.90;;;;;;5051384;28;20047;-70
2023/06/29 08:51:07;;;;;;;36.97;23.75;;;20.40;99.90;;;;;;5063442;28;20032;-71
2023/06/29 08:53:34;;;;;;;38.60;23.67;;;20.30;99.90;;;;;;5054874;28;20040;-70
2023/06/29 08:56:01;;;;;;;36.05;24.48;;;20.30;99.90;;;;;;5052185;28;20047;-71
2023/06/29 08:58:27;;;;;;;41.55;25.25;;;20.30;99.90;;;;;;5067209;28;20036;-71
2023/06/29 09:00:53;;;;;;;49.22;27.73;;;20.50;99.90;;;;;;5050290;28;20173;-72
2023/06/29 09:03:22;;;;;;;38.75;25.20;;;20.30;99.90;;;;;;5033645;28;20044;-76
2023/06/29 09:05:47;;;;;;;40.03;25.17;;;20.50;99.90;;;;;;5050539;28;20045;-78
2023/06/29 09:08:13;;;;;;;36.85;23.92;;;20.40;99.90;;;;;;5047350;28;20091;-74
2023/06/29 09:10:40;;;;;;;37.60;25.23;;;20.50;99.90;;;;;;5047033;28;20094;-74
2023/06/29 09:13:07;;;;;;;33.05;23.88;;;20.40;99.90;;;;;;5048609;28;20060;-71
2023/06/29 09:15:33;;;;;;;36.33;23.75;;;20.50;99.90;;;;;;5066516;28;20414;-71
2023/06/29 09:17:58;;;;;;;39.90;25.80;;;20.40;99.90;;;;;;5045107;28;20040;-72
2023/06/29 09:20:25;;;;;;;35.30;24.13;;;20.30;99.90;;;;;;5063832;28;20040;-72
2023/06/29 09:22:51;;;;;;;34.25;24.08;;;20.40;99.90;;;;;;5030729;28;20040;-72
2023/06/29 09:25:18;;;;;;;36.08;24.40;;;20.40;99.90;;;;;;5050069;28;20571;-74
2023/06/29 09:27:44;;;;;;;34.92;24.27;;;20.50;99.90;;;;;;5051689;28;20048;-73
2023/06/29 09:30:18;;;;;;;34.47;22.73;;;20.50;99.90;;;;;;5063201;28;20555;-72
2023/06/29 09:32:44;;;;;;;37.88;24.35;;;20.40;99.90;;;;;;5046215;28;20400;-71
2023/06/29 09:35:09;;;;;;;36.22;24.20;;;20.30;99.90;;;;;;5051176;28;20055;-71
2023/06/29 09:37:36;;;;;;;33.42;22.15;;;20.40;99.90;;;;;;5044884;28;20064;-72
2023/06/29 09:40:09;;;;;;;35.40;23.50;;;20.40;99.90;;;;;;5056863;28;20040;-73
2023/06/29 09:42:39;;;;;;;28.10;20.65;;;20.40;99.90;;;;;;5050092;28;20072;-72
2023/06/29 09:45:11;;;;;;;34.72;21.83;;;20.40;99.90;;;;;;5044292;28;20087;-73
2023/06/29 09:47:40;;;;;;;31.15;21.05;;;20.40;99.90;;;;;;5048903;28;20036;-72
2023/06/29 09:50:19;;;;;;;27.10;19.08;;;20.50;99.90;;;;;;5066834;28;20036;-71
2023/06/29 09:52:47;;;;;;;35.40;22.45;;;20.50;99.90;;;;;;5048273;28;20072;-70
2023/06/29 09:55:16;;;;;;;32.95;21.13;;;20.60;99.90;;;;;;5054634;28;20075;-71
2023/06/29 09:57:45;;;;;;;31.25;21.92;;;20.50;99.90;;;;;;5065069;28;20044;-71
2023/06/29 10:00:13;;;;;;;33.92;22.85;;;20.60;99.90;;;;;;5044394;28;20056;-72
2023/06/29 10:02:42;;;;;;;35.08;23.48;;;20.70;99.90;;;;;;5048200;28;20531;-71
2023/06/29 10:05:11;;;;;;;30.00;22.50;;;20.50;99.90;;;;;;5047285;28;20087;-73
2023/06/29 10:07:37;;;;;;;35.92;23.05;;;20.50;99.90;;;;;;5049515;28;20446;-69
2023/06/29 10:10:05;;;;;;;30.65;21.20;;;20.70;99.90;;;;;;5068180;28;20139;-69
2023/06/29 10:12:35;;;;;;;33.47;21.80;;;20.60;99.90;;;;;;5065583;28;20063;-69
2023/06/29 10:15:09;;;;;;;30.50;20.98;;;20.60;99.90;;;;;;5049975;28;20425;-70
2023/06/29 10:17:51;;;;;;;33.47;21.77;;;20.80;99.90;;;;;;5066109;28;20391;-70
2023/06/29 10:20:18;;;;;;;33.05;22.77;;;20.70;99.90;;;;;;5053101;28;20541;-70
2023/06/29 10:22:45;;;;;;;33.20;21.90;;;20.80;99.90;;;;;;5066203;28;20460;-70
2023/06/29 10:25:17;;;;;;;39.53;24.77;;;21.00;99.90;;;;;;5053056;28;20386;-69
2023/06/29 10:27:44;;;;;;;35.60;24.15;;;20.90;99.90;;;;;;5048086;28;20083;-70
2023/06/29 10:30:10;;;;;;;32.65;23.10;;;21.00;99.90;;;;;;5049764;28;20119;-70
2023/06/29 10:32:38;;;;;;;33.60;23.45;;;21.20;99.90;;;;;;5058023;28;20067;-69
2023/06/29 10:35:09;;;;;;;39.58;24.23;;;21.00;99.90;;;;;;5049319;28;20048;-70
2023/06/29 10:37:43;;;;;;;35.58;24.45;;;20.90;99.90;;;;;;5063941;28;20072;-69
2023/06/29 10:40:16;;;;;;;36.77;24.80;;;21.00;99.90;;;;;;5060194;28;20521;-70
2023/06/29 10:42:41;;;;;;;33.17;23.73;;;23.10;99.90;;;;;;5034426;28;20279;-70
2023/06/29 10:45:20;;;;;;;35.63;24.13;;;21.00;99.90;;;;;;5065022;28;20506;-70
2023/06/29 10:47:58;;;;;;;36.25;24.35;;;20.80;99.90;;;;;;5052755;28;20409;-70
2023/06/29 10:50:40;;;;;;;38.92;23.65;;;20.80;99.90;;;;;;5060184;28;20032;-70
2023/06/29 10:53:09;;;;;;;37.72;25.52;;;20.90;99.90;;;;;;5061634;28;20052;-70
2023/06/29 10:55:56;;;;;;;33.58;23.77;;;20.90;99.90;;;;;;5048800;28;21446;-70
2023/06/29 10:58:28;;;;;;;37.13;25.17;;;20.90;99.90;;;;;;5033513;28;20055;-69
2023/06/29 11:00:55;;;;;;;40.05;25.30;;;20.60;99.90;;;;;;5056670;28;20452;-69
2023/06/29 11:03:22;;;;;;;39.25;25.75;;;20.90;99.90;;;;;;5051935;28;20036;-69
2023/06/29 11:05:53;;;;;;;39.85;26.00;;;20.90;99.90;;;;;;5048414;28;20044;-69
2023/06/29 11:08:23;;;;;;;36.70;24.30;;;21.00;99.90;;;;;;5047732;28;20525;-70
2023/06/29 11:10:50;;;;;;;36.63;25.40;;;20.90;99.90;;;;;;5033924;28;20036;-69
2023/06/29 11:13:18;;;;;;;34.67;24.38;;;21.00;99.90;;;;;;5061937;28;20060;-74
2023/06/29 11:15:44;;;;;;;42.33;26.33;;;20.90;99.90;;;;;;5062218;28;20120;-73
2023/06/29 11:18:10;;;;;;;39.33;26.45;;;23.00;99.90;;;;;;5035908;28;20040;-73
2023/06/29 11:20:38;;;;;;;39.63;26.38;;;21.20;99.90;;;;;;5032130;28;20495;-73
2023/06/29 11:23:03;;;;;;;40.88;26.48;;;21.30;99.90;;;;;;5042636;28;20072;-73
2023/06/29 11:25:30;;;;;;;40.60;26.13;;;21.30;99.90;;;;;;5042687;28;20202;-73
2023/06/29 11:27:56;;;;;;;35.33;25.85;;;23.00;99.90;;;;;;5063106;28;20056;-71
2023/06/29 11:30:22;;;;;;;41.28;26.85;;;21.60;99.90;;;;;;5063451;28;20505;-69
2023/06/29 11:32:50;;;;;;;41.13;27.73;;;21.60;99.90;;;;;;5035616;28;20036;-69
2023/06/29 11:35:20;;;;;;;40.63;26.83;;;22.90;99.90;;;;;;5064521;28;20394;-69
2023/06/29 11:37:45;;;;;;;40.53;27.90;;;22.10;99.90;;;;;;5064463;28;20055;-69
2023/06/29 11:40:22;;;;;;;42.00;27.45;;;21.90;99.90;;;;;;5046671;28;20048;-69
2023/06/29 11:42:49;;;;;;;37.13;27.35;;;22.10;99.90;;;;;;5064555;28;20047;-70
2023/06/29 11:45:16;;;;;;;37.47;26.17;;;22.30;99.90;;;;;;5063672;28;20516;-69
2023/06/29 11:47:43;;;;;;;39.00;25.77;;;22.50;99.90;;;;;;5046957;28;20489;-69
2023/06/29 11:50:10;;;;;;;39.83;25.02;;;22.60;99.90;;;;;;5050694;28;20128;-70
2023/06/29 11:52:39;;;;;;;39.63;27.08;;;22.30;99.90;;;;;;5064549;28;20044;-71
2023/06/29 11:55:11;;;;;;;36.47;24.30;;;23.00;99.90;;;;;;5046123;28;20037;-69
2023/06/29 11:57:37;;;;;;;35.25;25.40;;;22.90;99.90;;;;;;5046901;28;20124;-70
2023/06/29 12:00:08;;;;;;;33.55;24.00;;;22.60;99.90;;;;;;5046326;28;20563;-69
2023/06/29 12:02:34;;;;;;;36.13;25.00;;;22.90;99.90;;;;;;5047455;28;20082;-69
2023/06/29 12:05:03;;;;;;;35.85;25.35;;;22.80;99.90;;;;;;5034950;28;20583;-69
2023/06/29 12:07:40;;;;;;;37.45;24.40;;;24.20;99.90;;;;;;5052102;28;20489;-69
2023/06/29 12:10:11;;;;;;;33.55;23.50;;;22.70;99.90;;;;;;5047101;28;20489;-70
2023/06/29 12:12:45;;;;;;;40.67;24.60;;;22.70;99.90;;;;;;5057201;28;20060;-69
2023/06/29 12:15:16;;;;;;;39.88;26.33;;;22.50;99.90;;;;;;5030020;28;20487;-70
2023/06/29 12:17:42;;;;;;;38.45;25.67;;;22.60;99.90;;;;;;5050016;28;20204;-69
2023/06/29 12:20:13;;;;;;;38.33;25.15;;;22.80;99.90;;;;;;5064982;28;20040;-69
2023/06/29 12:22:39;;;;;;;43.95;26.52;;;22.90;99.90;;;;;;5048351;28;20044;-69
2023/06/29 12:25:05;;;;;;;38.10;25.52;;;22.60;99.90;;;;;;5049263;28;20389;-69
2023/06/29 12:27:30;;;;;;;40.97;25.45;;;22.70;99.90;;;;;;5028384;28;20127;-70
2023/06/29 12:29:56;;;;;;;41.53;24.65;;;24.10;99.90;;;;;;5060215;28;20164;-70
2023/06/29 12:32:22;;;;;;;42.63;26.50;;;22.60;99.90;;;;;;5019840;28;20041;-69
2023/06/29 12:34:47;;;;;;;36.58;24.65;;;23.00;99.90;;;;;;5066360;28;20051;-69
2023/06/29 12:37:13;;;;;;;42.13;25.48;;;22.90;99.90;;;;;;5067780;28;20047;-69
2023/06/29 12:39:38;;;;;;;33.45;23.95;;;23.00;99.90;;;;;;5050180;28;20040;-69
2023/06/29 12:42:06;;;;;;;38.92;24.15;;;23.00;99.90;;;;;;5052837;28;20044;-69
2023/06/29 12:44:32;;;;;;;35.33;23.08;;;23.20;99.90;;;;;;5053986;28;20055;-69
2023/06/29 12:46:58;;;;;;;38.53;23.42;;;23.20;99.90;;;;;;5057719;28;20048;-69
2023/06/29 12:49:23;;;;;;;35.13;22.80;;;23.40;99.90;;;;;;5067743;28;20032;-69